Runnelstown, Mississippi
Current Conditions -  °F | °C
As of 6:53 PM on Tuesday 27 Jan 2015 (Local Time) from KHBG Reporting Station
Clear Clear  
Wind Chill: 52°   Ceiling: Unl
Heat Index: 52°   Visibility: 10mi
Dew Point: 37°   Wind: 0mph
Humidity: 57%   Direction: NA
Pressure: 30.11"   Gusts: NA
Location:  31.1996°N, 89.2694°W
Report Text: KHBG 280053Z AUTO 00000KT 10SM CLR 11/03 A3011 RMK AO2 SLP196 T01110028
Loading
Personal Weather Stations






























Interactive Weather Map New forecast layout! Learn more

10-Day Weather Forecast

Advertisements
Track Severe Weather on mobile